sensor_id;sensor_type;location;lat;lon;timestamp;temperature;humidity
8824;DHT22;4448;50.904;4.694;2023-03-20T00:01:54;10.10;99.90
8824;DHT22;4448;50.904;4.694;2023-03-20T00:04:20;10.10;99.90
8824;DHT22;4448;50.904;4.694;2023-03-20T00:06:45;10.10;99.90
8824;DHT22;4448;50.904;4.694;2023-03-20T00:09:11;10.10;99.90
8824;DHT22;4448;50.904;4.694;2023-03-20T00:11:51;10.00;99.90
8824;DHT22;4448;50.904;4.694;2023-03-20T00:14:19;10.00;99.90
8824;DHT22;4448;50.904;4.694;2023-03-20T00:16:48;10.00;99.90
8824;DHT22;4448;50.904;4.694;2023-03-20T00:19:20;9.90;99.90
8824;DHT22;4448;50.904;4.694;2023-03-20T00:21:51;9.90;99.90
8824;DHT22;4448;50.904;4.694;2023-03-20T00:24:17;9.90;99.90
8824;DHT22;4448;50.904;4.694;2023-03-20T00:26:44;9.80;99.90
8824;DHT22;4448;50.904;4.694;2023-03-20T00:31:46;9.80;99.90
8824;DHT22;4448;50.904;4.694;2023-03-20T00:34:16;9.70;99.90
8824;DHT22;4448;50.904;4.694;2023-03-20T00:36:43;9.70;99.90
8824;DHT22;4448;50.904;4.694;2023-03-20T00:39:09;9.60;99.90
8824;DHT22;4448;50.904;4.694;2023-03-20T00:46:50;9.50;99.90
8824;DHT22;4448;50.904;4.694;2023-03-20T00:49:20;9.50;99.90
8824;DHT22;4448;50.904;4.694;2023-03-20T00:51:47;9.50;99.90
8824;DHT22;4448;50.904;4.694;2023-03-20T00:54:15;9.50;99.90
8824;DHT22;4448;50.904;4.694;2023-03-20T00:57:29;9.50;99.90
8824;DHT22;4448;50.904;4.694;2023-03-20T00:59:41;9.40;99.90
8824;DHT22;4448;50.904;4.694;2023-03-20T01:02:11;9.40;99.90
8824;DHT22;4448;50.904;4.694;2023-03-20T01:04:41;9.40;99.90
8824;DHT22;4448;50.904;4.694;2023-03-20T01:07:11;9.40;99.90
8824;DHT22;4448;50.904;4.694;2023-03-20T01:09:37;9.40;99.90
8824;DHT22;4448;50.904;4.694;2023-03-20T01:12:03;9.40;99.90
8824;DHT22;4448;50.904;4.694;2023-03-20T01:14:30;9.40;99.90
8824;DHT22;4448;50.904;4.694;2023-03-20T01:16:55;9.40;99.90
8824;DHT22;4448;50.904;4.694;2023-03-20T01:19:21;9.30;99.90
8824;DHT22;4448;50.904;4.694;2023-03-20T01:21:47;9.30;99.90
8824;DHT22;4448;50.904;4.694;2023-03-20T01:24:12;9.30;99.90
8824;DHT22;4448;50.904;4.694;2023-03-20T01:26:40;9.30;99.90
8824;DHT22;4448;50.904;4.694;2023-03-20T01:29:27;9.30;99.90
8824;DHT22;4448;50.904;4.694;2023-03-20T01:31:53;9.30;99.90
8824;DHT22;4448;50.904;4.694;2023-03-20T01:34:19;9.30;99.90
8824;DHT22;4448;50.904;4.694;2023-03-20T01:36:53;9.30;99.90
8824;DHT22;4448;50.904;4.694;2023-03-20T01:39:20;9.30;99.90
8824;DHT22;4448;50.904;4.694;2023-03-20T01:41:50;9.30;99.90
8824;DHT22;4448;50.904;4.694;2023-03-20T01:44:28;9.30;99.90
8824;DHT22;4448;50.904;4.694;2023-03-20T01:46:54;9.30;99.90
8824;DHT22;4448;50.904;4.694;2023-03-20T01:51:47;9.30;99.90
8824;DHT22;4448;50.904;4.694;2023-03-20T01:54:32;9.30;99.90
8824;DHT22;4448;50.904;4.694;2023-03-20T01:57:03;9.20;99.90
8824;DHT22;4448;50.904;4.694;2023-03-20T02:02:20;9.30;99.90
8824;DHT22;4448;50.904;4.694;2023-03-20T02:04:51;9.30;99.90
8824;DHT22;4448;50.904;4.694;2023-03-20T02:07:19;9.30;99.90
8824;DHT22;4448;50.904;4.694;2023-03-20T02:09:46;9.40;99.90
8824;DHT22;4448;50.904;4.694;2023-03-20T02:12:13;9.40;99.90
8824;DHT22;4448;50.904;4.694;2023-03-20T02:14:39;9.40;99.90
8824;DHT22;4448;50.904;4.694;2023-03-20T02:17:08;9.40;99.90
8824;DHT22;4448;50.904;4.694;2023-03-20T02:36:14;9.40;99.90
8824;DHT22;4448;50.904;4.694;2023-03-20T02:38:49;9.40;99.90
8824;DHT22;4448;50.904;4.694;2023-03-20T02:41:24;9.40;99.90
8824;DHT22;4448;50.904;4.694;2023-03-20T02:47:22;9.40;99.90
8824;DHT22;4448;50.904;4.694;2023-03-20T03:02:47;9.30;99.90
8824;DHT22;4448;50.904;4.694;2023-03-20T03:05:21;9.30;99.90
8824;DHT22;4448;50.904;4.694;2023-03-20T03:07:50;9.30;99.90
8824;DHT22;4448;50.904;4.694;2023-03-20T03:10:23;9.30;99.90
8824;DHT22;4448;50.904;4.694;2023-03-20T03:12:53;9.30;99.90
8824;DHT22;4448;50.904;4.694;2023-03-20T03:15:30;9.30;99.90
8824;DHT22;4448;50.904;4.694;2023-03-20T03:17:58;9.30;99.90
8824;DHT22;4448;50.904;4.694;2023-03-20T03:20:30;9.20;99.90
8824;DHT22;4448;50.904;4.694;2023-03-20T03:22:57;9.20;99.90
8824;DHT22;4448;50.904;4.694;2023-03-20T03:25:25;9.20;99.90
8824;DHT22;4448;50.904;4.694;2023-03-20T03:30:40;9.10;99.90
8824;DHT22;4448;50.904;4.694;2023-03-20T03:33:23;9.10;99.90
8824;DHT22;4448;50.904;4.694;2023-03-20T03:35:52;9.10;99.90
8824;DHT22;4448;50.904;4.694;2023-03-20T03:49:03;9.00;99.90
8824;DHT22;4448;50.904;4.694;2023-03-20T03:51:32;9.00;99.90
8824;DHT22;4448;50.904;4.694;2023-03-20T03:54:08;9.00;99.90
8824;DHT22;4448;50.904;4.694;2023-03-20T03:56:37;9.00;99.90
8824;DHT22;4448;50.904;4.694;2023-03-20T03:59:10;9.00;99.90
8824;DHT22;4448;50.904;4.694;2023-03-20T04:01:39;9.00;99.90
8824;DHT22;4448;50.904;4.694;2023-03-20T04:04:09;9.00;99.90
8824;DHT22;4448;50.904;4.694;2023-03-20T04:06:36;9.00;99.90
8824;DHT22;4448;50.904;4.694;2023-03-20T04:09:02;9.00;99.90
8824;DHT22;4448;50.904;4.694;2023-03-20T04:11:28;9.00;99.90
8824;DHT22;4448;50.904;4.694;2023-03-20T04:13:54;9.00;99.90
8824;DHT22;4448;50.904;4.694;2023-03-20T04:16:22;9.00;99.90
8824;DHT22;4448;50.904;4.694;2023-03-20T04:18:49;9.00;99.90
8824;DHT22;4448;50.904;4.694;2023-03-20T04:21:15;9.00;99.90
8824;DHT22;4448;50.904;4.694;2023-03-20T04:23:41;8.90;99.90
8824;DHT22;4448;50.904;4.694;2023-03-20T04:26:07;9.00;99.90
8824;DHT22;4448;50.904;4.694;2023-03-20T04:28:33;9.00;99.90
8824;DHT22;4448;50.904;4.694;2023-03-20T04:31:00;9.00;99.90
8824;DHT22;4448;50.904;4.694;2023-03-20T04:33:26;9.00;99.90
8824;DHT22;4448;50.904;4.694;2023-03-20T04:35:53;8.90;99.90
8824;DHT22;4448;50.904;4.694;2023-03-20T04:38:19;8.90;99.90
8824;DHT22;4448;50.904;4.694;2023-03-20T04:40:46;9.00;99.90
8824;DHT22;4448;50.904;4.694;2023-03-20T04:43:12;8.90;99.90
8824;DHT22;4448;50.904;4.694;2023-03-20T04:45:39;8.90;99.90
8824;DHT22;4448;50.904;4.694;2023-03-20T04:48:05;9.00;99.90
8824;DHT22;4448;50.904;4.694;2023-03-20T04:50:30;9.00;99.90
8824;DHT22;4448;50.904;4.694;2023-03-20T04:52:56;9.00;99.90
8824;DHT22;4448;50.904;4.694;2023-03-20T04:55:22;9.00;99.90
8824;DHT22;4448;50.904;4.694;2023-03-20T04:57:48;8.90;99.90
8824;DHT22;4448;50.904;4.694;2023-03-20T05:00:14;8.90;99.90
8824;DHT22;4448;50.904;4.694;2023-03-20T05:02:40;8.90;99.90
8824;DHT22;4448;50.904;4.694;2023-03-20T05:05:06;8.90;99.90
8824;DHT22;4448;50.904;4.694;2023-03-20T05:07:32;8.90;99.90
8824;DHT22;4448;50.904;4.694;2023-03-20T05:09:58;8.90;99.90
8824;DHT22;4448;50.904;4.694;2023-03-20T05:12:24;8.90;99.90
8824;DHT22;4448;50.904;4.694;2023-03-20T05:14:51;8.90;99.90
8824;DHT22;4448;50.904;4.694;2023-03-20T05:17:17;8.90;99.90
8824;DHT22;4448;50.904;4.694;2023-03-20T05:19:44;8.90;99.90
8824;DHT22;4448;50.904;4.694;2023-03-20T05:22:10;8.90;99.90
8824;DHT22;4448;50.904;4.694;2023-03-20T05:24:35;8.90;99.90
8824;DHT22;4448;50.904;4.694;2023-03-20T05:27:01;8.90;99.90
8824;DHT22;4448;50.904;4.694;2023-03-20T05:29:27;8.90;99.90
8824;DHT22;4448;50.904;4.694;2023-03-20T05:31:52;8.90;99.90
8824;DHT22;4448;50.904;4.694;2023-03-20T05:34:20;8.90;99.90
8824;DHT22;4448;50.904;4.694;2023-03-20T05:36:46;8.90;99.90
8824;DHT22;4448;50.904;4.694;2023-03-20T05:39:12;8.90;99.90
8824;DHT22;4448;50.904;4.694;2023-03-20T05:41:37;8.90;99.90
8824;DHT22;4448;50.904;4.694;2023-03-20T05:44:03;8.90;99.90
8824;DHT22;4448;50.904;4.694;2023-03-20T05:46:30;8.90;99.90
8824;DHT22;4448;50.904;4.694;2023-03-20T05:48:55;8.90;99.90
8824;DHT22;4448;50.904;4.694;2023-03-20T05:51:21;8.90;99.90
8824;DHT22;4448;50.904;4.694;2023-03-20T05:53:47;8.90;99.90
8824;DHT22;4448;50.904;4.694;2023-03-20T05:56:12;8.90;99.90
8824;DHT22;4448;50.904;4.694;2023-03-20T05:58:38;8.90;99.90
8824;DHT22;4448;50.904;4.694;2023-03-20T06:01:04;8.90;99.90
8824;DHT22;4448;50.904;4.694;2023-03-20T06:03:30;8.90;99.90
8824;DHT22;4448;50.904;4.694;2023-03-20T06:05:55;8.90;99.90
8824;DHT22;4448;50.904;4.694;2023-03-20T06:08:21;8.90;99.90
8824;DHT22;4448;50.904;4.694;2023-03-20T06:10:49;8.90;99.90
8824;DHT22;4448;50.904;4.694;2023-03-20T06:13:15;8.90;99.90
8824;DHT22;4448;50.904;4.694;2023-03-20T06:15:40;8.90;99.90
8824;DHT22;4448;50.904;4.694;2023-03-20T06:18:06;8.90;99.90
8824;DHT22;4448;50.904;4.694;2023-03-20T06:20:32;8.90;99.90
8824;DHT22;4448;50.904;4.694;2023-03-20T06:22:57;8.90;99.90
8824;DHT22;4448;50.904;4.694;2023-03-20T06:25:23;8.90;99.90
8824;DHT22;4448;50.904;4.694;2023-03-20T06:27:49;8.90;99.90
8824;DHT22;4448;50.904;4.694;2023-03-20T06:30:15;8.90;99.90
8824;DHT22;4448;50.904;4.694;2023-03-20T06:32:41;8.90;99.90
8824;DHT22;4448;50.904;4.694;2023-03-20T06:35:08;8.90;99.90
8824;DHT22;4448;50.904;4.694;2023-03-20T06:37:34;8.90;99.90
8824;DHT22;4448;50.904;4.694;2023-03-20T06:40:02;8.90;99.90
8824;DHT22;4448;50.904;4.694;2023-03-20T06:42:28;9.00;99.90
8824;DHT22;4448;50.904;4.694;2023-03-20T06:44:54;9.00;99.90
8824;DHT22;4448;50.904;4.694;2023-03-20T06:47:21;9.00;99.90
8824;DHT22;4448;50.904;4.694;2023-03-20T06:49:47;8.90;99.90
8824;DHT22;4448;50.904;4.694;2023-03-20T06:52:15;8.90;99.90
8824;DHT22;4448;50.904;4.694;2023-03-20T06:54:41;8.90;99.90
8824;DHT22;4448;50.904;4.694;2023-03-20T06:57:07;8.90;99.90
8824;DHT22;4448;50.904;4.694;2023-03-20T06:59:33;8.90;99.90
8824;DHT22;4448;50.904;4.694;2023-03-20T07:01:59;9.00;99.90
8824;DHT22;4448;50.904;4.694;2023-03-20T07:04:25;9.00;99.90
8824;DHT22;4448;50.904;4.694;2023-03-20T07:06:51;9.00;99.90
8824;DHT22;4448;50.904;4.694;2023-03-20T07:09:16;9.00;99.90
8824;DHT22;4448;50.904;4.694;2023-03-20T07:11:42;9.00;99.90
8824;DHT22;4448;50.904;4.694;2023-03-20T07:14:09;9.10;99.90
8824;DHT22;4448;50.904;4.694;2023-03-20T07:16:35;9.10;99.90
8824;DHT22;4448;50.904;4.694;2023-03-20T07:19:02;9.10;99.90
8824;DHT22;4448;50.904;4.694;2023-03-20T07:21:28;9.10;99.90
8824;DHT22;4448;50.904;4.694;2023-03-20T07:23:54;9.10;99.90
8824;DHT22;4448;50.904;4.694;2023-03-20T07:26:20;9.10;99.90
8824;DHT22;4448;50.904;4.694;2023-03-20T07:28:45;9.20;99.90
8824;DHT22;4448;50.904;4.694;2023-03-20T07:31:26;9.20;99.90
8824;DHT22;4448;50.904;4.694;2023-03-20T07:33:53;9.20;99.90
8824;DHT22;4448;50.904;4.694;2023-03-20T07:36:19;9.30;99.90
8824;DHT22;4448;50.904;4.694;2023-03-20T07:38:44;9.40;99.90
8824;DHT22;4448;50.904;4.694;2023-03-20T07:41:10;9.40;99.90
8824;DHT22;4448;50.904;4.694;2023-03-20T07:43:36;9.40;99.90
8824;DHT22;4448;50.904;4.694;2023-03-20T07:46:06;9.40;99.90
8824;DHT22;4448;50.904;4.694;2023-03-20T07:48:33;9.40;99.90
8824;DHT22;4448;50.904;4.694;2023-03-20T07:50:59;9.50;99.90
8824;DHT22;4448;50.904;4.694;2023-03-20T07:53:25;9.50;99.90
8824;DHT22;4448;50.904;4.694;2023-03-20T07:55:50;9.50;99.90
8824;DHT22;4448;50.904;4.694;2023-03-20T07:58:16;9.60;99.90
8824;DHT22;4448;50.904;4.694;2023-03-20T08:00:42;9.60;99.90
8824;DHT22;4448;50.904;4.694;2023-03-20T08:03:08;9.60;99.90
8824;DHT22;4448;50.904;4.694;2023-03-20T08:05:34;9.70;99.90
8824;DHT22;4448;50.904;4.694;2023-03-20T08:08:00;9.70;99.90
8824;DHT22;4448;50.904;4.694;2023-03-20T08:10:26;9.70;99.90
8824;DHT22;4448;50.904;4.694;2023-03-20T08:12:51;9.70;99.90
8824;DHT22;4448;50.904;4.694;2023-03-20T08:15:17;9.80;99.90
8824;DHT22;4448;50.904;4.694;2023-03-20T08:17:44;9.80;99.90
8824;DHT22;4448;50.904;4.694;2023-03-20T08:20:10;9.80;99.90
8824;DHT22;4448;50.904;4.694;2023-03-20T08:22:37;9.90;99.90
8824;DHT22;4448;50.904;4.694;2023-03-20T08:25:03;9.80;99.90
8824;DHT22;4448;50.904;4.694;2023-03-20T08:27:29;9.80;99.90
8824;DHT22;4448;50.904;4.694;2023-03-20T08:30:08;9.80;99.90
8824;DHT22;4448;50.904;4.694;2023-03-20T08:32:34;9.80;99.90
8824;DHT22;4448;50.904;4.694;2023-03-20T08:35:00;9.80;99.90
8824;DHT22;4448;50.904;4.694;2023-03-20T08:37:26;9.70;99.90
8824;DHT22;4448;50.904;4.694;2023-03-20T08:39:52;9.80;99.90
8824;DHT22;4448;50.904;4.694;2023-03-20T08:42:18;9.70;99.90
8824;DHT22;4448;50.904;4.694;2023-03-20T08:44:44;9.70;99.90
8824;DHT22;4448;50.904;4.694;2023-03-20T08:47:10;9.70;99.90
8824;DHT22;4448;50.904;4.694;2023-03-20T08:49:36;9.60;99.90
8824;DHT22;4448;50.904;4.694;2023-03-20T08:52:02;9.60;99.90
8824;DHT22;4448;50.904;4.694;2023-03-20T08:54:28;9.60;99.90
8824;DHT22;4448;50.904;4.694;2023-03-20T08:56:55;9.60;99.90
8824;DHT22;4448;50.904;4.694;2023-03-20T08:59:20;9.60;99.90
8824;DHT22;4448;50.904;4.694;2023-03-20T09:01:46;9.60;99.90
8824;DHT22;4448;50.904;4.694;2023-03-20T09:04:13;9.60;99.90
8824;DHT22;4448;50.904;4.694;2023-03-20T09:06:39;9.60;99.90
8824;DHT22;4448;50.904;4.694;2023-03-20T09:09:05;9.60;99.90
8824;DHT22;4448;50.904;4.694;2023-03-20T09:11:32;9.60;99.90
8824;DHT22;4448;50.904;4.694;2023-03-20T09:13:58;9.60;99.90
8824;DHT22;4448;50.904;4.694;2023-03-20T09:16:25;9.60;99.90
8824;DHT22;4448;50.904;4.694;2023-03-20T09:18:51;9.60;99.90
8824;DHT22;4448;50.904;4.694;2023-03-20T09:21:16;9.60;99.90
8824;DHT22;4448;50.904;4.694;2023-03-20T09:23:42;9.60;99.90
8824;DHT22;4448;50.904;4.694;2023-03-20T09:26:08;9.70;99.90
8824;DHT22;4448;50.904;4.694;2023-03-20T09:28:33;9.60;99.90
8824;DHT22;4448;50.904;4.694;2023-03-20T09:30:59;9.70;99.90
8824;DHT22;4448;50.904;4.694;2023-03-20T09:33:25;9.70;99.90
8824;DHT22;4448;50.904;4.694;2023-03-20T09:35:52;9.70;99.90
8824;DHT22;4448;50.904;4.694;2023-03-20T09:38:18;9.70;99.90
8824;DHT22;4448;50.904;4.694;2023-03-20T09:43:25;9.80;99.90
8824;DHT22;4448;50.904;4.694;2023-03-20T09:52:15;9.90;99.90
8824;DHT22;4448;50.904;4.694;2023-03-20T09:54:45;10.00;99.90
8824;DHT22;4448;50.904;4.694;2023-03-20T09:57:22;10.10;99.90
8824;DHT22;4448;50.904;4.694;2023-03-20T09:59:55;10.10;99.90
8824;DHT22;4448;50.904;4.694;2023-03-20T10:05:24;10.20;99.90
8824;DHT22;4448;50.904;4.694;2023-03-20T10:07:57;10.30;99.90
8824;DHT22;4448;50.904;4.694;2023-03-20T10:13:24;10.40;99.90
8824;DHT22;4448;50.904;4.694;2023-03-20T10:16:12;10.40;99.90
8824;DHT22;4448;50.904;4.694;2023-03-20T10:21:48;10.60;99.90
8824;DHT22;4448;50.904;4.694;2023-03-20T10:26:50;10.60;99.90
8824;DHT22;4448;50.904;4.694;2023-03-20T10:32:08;10.70;99.90
8824;DHT22;4448;50.904;4.694;2023-03-20T10:34:56;10.70;99.90
8824;DHT22;4448;50.904;4.694;2023-03-20T10:37:41;10.80;99.90
8824;DHT22;4448;50.904;4.694;2023-03-20T10:40:27;10.80;99.90
8824;DHT22;4448;50.904;4.694;2023-03-20T10:42:58;10.90;99.90
8824;DHT22;4448;50.904;4.694;2023-03-20T10:45:40;10.90;99.90
8824;DHT22;4448;50.904;4.694;2023-03-20T10:48:24;10.90;99.90
8824;DHT22;4448;50.904;4.694;2023-03-20T10:50:58;11.00;99.90
8824;DHT22;4448;50.904;4.694;2023-03-20T10:56:04;11.00;99.90
8824;DHT22;4448;50.904;4.694;2023-03-20T10:58:34;11.10;99.90
8824;DHT22;4448;50.904;4.694;2023-03-20T11:01:02;11.10;99.90
8824;DHT22;4448;50.904;4.694;2023-03-20T11:03:30;11.10;99.90
8824;DHT22;4448;50.904;4.694;2023-03-20T11:06:00;11.20;99.90
8824;DHT22;4448;50.904;4.694;2023-03-20T11:08:33;11.20;99.90
8824;DHT22;4448;50.904;4.694;2023-03-20T11:11:01;11.30;99.90
8824;DHT22;4448;50.904;4.694;2023-03-20T11:13:40;11.30;99.90
8824;DHT22;4448;50.904;4.694;2023-03-20T11:16:19;11.30;99.90
8824;DHT22;4448;50.904;4.694;2023-03-20T11:18:46;11.40;99.90
8824;DHT22;4448;50.904;4.694;2023-03-20T11:21:28;11.50;99.90
8824;DHT22;4448;50.904;4.694;2023-03-20T11:23:55;11.50;99.90
8824;DHT22;4448;50.904;4.694;2023-03-20T11:26:38;11.50;99.90
8824;DHT22;4448;50.904;4.694;2023-03-20T11:29:07;11.50;99.90
8824;DHT22;4448;50.904;4.694;2023-03-20T11:31:38;11.40;99.90
8824;DHT22;4448;50.904;4.694;2023-03-20T11:36:37;11.40;99.90
8824;DHT22;4448;50.904;4.694;2023-03-20T11:39:15;11.50;99.90
8824;DHT22;4448;50.904;4.694;2023-03-20T11:41:49;11.50;99.90
8824;DHT22;4448;50.904;4.694;2023-03-20T11:49:25;11.80;99.90
8824;DHT22;4448;50.904;4.694;2023-03-20T11:51:58;11.90;99.90
8824;DHT22;4448;50.904;4.694;2023-03-20T11:54:25;12.00;99.90
8824;DHT22;4448;50.904;4.694;2023-03-20T11:59:19;12.20;99.90
8824;DHT22;4448;50.904;4.694;2023-03-20T12:01:53;12.30;99.90
8824;DHT22;4448;50.904;4.694;2023-03-20T12:04:30;12.30;99.90
8824;DHT22;4448;50.904;4.694;2023-03-20T12:07:00;12.40;99.90
8824;DHT22;4448;50.904;4.694;2023-03-20T12:15:20;12.40;99.90
8824;DHT22;4448;50.904;4.694;2023-03-20T12:20:38;12.50;99.90
8824;DHT22;4448;50.904;4.694;2023-03-20T12:36:37;12.40;99.90
8824;DHT22;4448;50.904;4.694;2023-03-20T12:39:14;12.40;99.90
8824;DHT22;4448;50.904;4.694;2023-03-20T12:41:50;12.40;99.90
8824;DHT22;4448;50.904;4.694;2023-03-20T12:44:31;12.40;99.90
8824;DHT22;4448;50.904;4.694;2023-03-20T12:50:39;12.30;99.90
8824;DHT22;4448;50.904;4.694;2023-03-20T12:57:21;12.30;99.90
8824;DHT22;4448;50.904;4.694;2023-03-20T12:59:34;12.30;99.90
8824;DHT22;4448;50.904;4.694;2023-03-20T13:05:36;12.40;99.90
8824;DHT22;4448;50.904;4.694;2023-03-20T13:08:25;12.40;99.90
8824;DHT22;4448;50.904;4.694;2023-03-20T13:11:21;12.50;99.90
8824;DHT22;4448;50.904;4.694;2023-03-20T13:14:09;12.50;99.90
8824;DHT22;4448;50.904;4.694;2023-03-20T13:16:56;12.50;99.90
8824;DHT22;4448;50.904;4.694;2023-03-20T13:19:44;12.60;99.90
8824;DHT22;4448;50.904;4.694;2023-03-20T13:22:53;12.60;99.90
8824;DHT22;4448;50.904;4.694;2023-03-20T13:31:03;12.60;99.90
8824;DHT22;4448;50.904;4.694;2023-03-20T13:33:37;12.70;99.90
8824;DHT22;4448;50.904;4.694;2023-03-20T13:41:38;12.60;99.90
8824;DHT22;4448;50.904;4.694;2023-03-20T13:44:05;12.70;99.90
8824;DHT22;4448;50.904;4.694;2023-03-20T13:46:50;12.60;99.90
8824;DHT22;4448;50.904;4.694;2023-03-20T13:49:28;12.60;99.90
8824;DHT22;4448;50.904;4.694;2023-03-20T13:54:46;12.60;99.90
8824;DHT22;4448;50.904;4.694;2023-03-20T14:05:22;12.50;99.90
8824;DHT22;4448;50.904;4.694;2023-03-20T14:07:55;12.50;99.90
8824;DHT22;4448;50.904;4.694;2023-03-20T14:15:51;12.40;99.90
8824;DHT22;4448;50.904;4.694;2023-03-20T14:18:21;12.40;99.90
8824;DHT22;4448;50.904;4.694;2023-03-20T14:20:58;12.40;99.90
8824;DHT22;4448;50.904;4.694;2023-03-20T14:25:57;12.40;99.90
8824;DHT22;4448;50.904;4.694;2023-03-20T14:28:28;12.40;99.90
8824;DHT22;4448;50.904;4.694;2023-03-20T14:31:29;12.40;99.90
8824;DHT22;4448;50.904;4.694;2023-03-20T14:39:53;12.40;99.90
8824;DHT22;4448;50.904;4.694;2023-03-20T14:45:35;12.20;99.90
8824;DHT22;4448;50.904;4.694;2023-03-20T14:50:53;12.40;99.90
8824;DHT22;4448;50.904;4.694;2023-03-20T14:53:24;12.40;99.90
8824;DHT22;4448;50.904;4.694;2023-03-20T14:56:00;12.40;99.90
8824;DHT22;4448;50.904;4.694;2023-03-20T15:01:23;12.40;99.90
8824;DHT22;4448;50.904;4.694;2023-03-20T15:03:50;12.40;99.90
8824;DHT22;4448;50.904;4.694;2023-03-20T15:06:21;12.40;99.90
8824;DHT22;4448;50.904;4.694;2023-03-20T15:08:55;12.40;99.90
8824;DHT22;4448;50.904;4.694;2023-03-20T15:11:22;12.40;99.90
8824;DHT22;4448;50.904;4.694;2023-03-20T15:13:49;12.40;99.90
8824;DHT22;4448;50.904;4.694;2023-03-20T15:16:16;12.40;99.90
8824;DHT22;4448;50.904;4.694;2023-03-20T15:18:51;12.40;99.90
8824;DHT22;4448;50.904;4.694;2023-03-20T15:23:56;12.40;99.90
8824;DHT22;4448;50.904;4.694;2023-03-20T15:26:22;12.40;99.90
8824;DHT22;4448;50.904;4.694;2023-03-20T15:29:12;12.40;99.90
8824;DHT22;4448;50.904;4.694;2023-03-20T15:31:39;12.40;99.90
8824;DHT22;4448;50.904;4.694;2023-03-20T15:34:08;12.40;99.90
8824;DHT22;4448;50.904;4.694;2023-03-20T15:36:38;12.40;99.90
8824;DHT22;4448;50.904;4.694;2023-03-20T15:39:17;12.40;99.90
8824;DHT22;4448;50.904;4.694;2023-03-20T15:41:47;12.40;99.90
8824;DHT22;4448;50.904;4.694;2023-03-20T15:46:50;12.40;99.90
8824;DHT22;4448;50.904;4.694;2023-03-20T15:49:21;12.40;99.90
8824;DHT22;4448;50.904;4.694;2023-03-20T15:51:47;12.50;99.90
8824;DHT22;4448;50.904;4.694;2023-03-20T15:54:15;12.50;99.90
8824;DHT22;4448;50.904;4.694;2023-03-20T15:56:43;12.50;99.90
8824;DHT22;4448;50.904;4.694;2023-03-20T15:59:22;12.40;99.90
8824;DHT22;4448;50.904;4.694;2023-03-20T16:01:51;12.40;99.90
8824;DHT22;4448;50.904;4.694;2023-03-20T16:04:18;12.40;99.90
8824;DHT22;4448;50.904;4.694;2023-03-20T16:06:56;12.40;99.90
8824;DHT22;4448;50.904;4.694;2023-03-20T16:09:22;12.40;99.90
8824;DHT22;4448;50.904;4.694;2023-03-20T16:11:56;12.30;99.90
8824;DHT22;4448;50.904;4.694;2023-03-20T16:14:24;12.30;99.90
8824;DHT22;4448;50.904;4.694;2023-03-20T16:16:52;12.30;99.90
8824;DHT22;4448;50.904;4.694;2023-03-20T16:19:19;12.40;99.90
8824;DHT22;4448;50.904;4.694;2023-03-20T16:22:00;12.40;99.90
8824;DHT22;4448;50.904;4.694;2023-03-20T16:24:35;12.40;99.90
8824;DHT22;4448;50.904;4.694;2023-03-20T16:27:05;12.40;99.90
8824;DHT22;4448;50.904;4.694;2023-03-20T16:29:31;12.40;99.90
8824;DHT22;4448;50.904;4.694;2023-03-20T16:32:02;12.30;99.90
8824;DHT22;4448;50.904;4.694;2023-03-20T16:34:34;12.30;99.90
8824;DHT22;4448;50.904;4.694;2023-03-20T16:37:21;12.30;99.90
8824;DHT22;4448;50.904;4.694;2023-03-20T16:39:47;12.30;99.90
8824;DHT22;4448;50.904;4.694;2023-03-20T16:42:23;12.30;99.90
8824;DHT22;4448;50.904;4.694;2023-03-20T16:44:54;12.20;99.90
8824;DHT22;4448;50.904;4.694;2023-03-20T16:47:22;12.30;99.90
8824;DHT22;4448;50.904;4.694;2023-03-20T16:52:15;12.20;99.90
8824;DHT22;4448;50.904;4.694;2023-03-20T16:54:41;12.20;99.90
8824;DHT22;4448;50.904;4.694;2023-03-20T16:57:14;12.20;99.90
8824;DHT22;4448;50.904;4.694;2023-03-20T16:59:40;12.20;99.90
8824;DHT22;4448;50.904;4.694;2023-03-20T17:02:29;12.20;99.90
8824;DHT22;4448;50.904;4.694;2023-03-20T17:05:01;12.20;99.90
8824;DHT22;4448;50.904;4.694;2023-03-20T17:07:27;12.20;99.90
8824;DHT22;4448;50.904;4.694;2023-03-20T17:09:59;12.20;99.90
8824;DHT22;4448;50.904;4.694;2023-03-20T17:12:31;12.20;99.90
8824;DHT22;4448;50.904;4.694;2023-03-20T17:14:57;12.20;99.90
8824;DHT22;4448;50.904;4.694;2023-03-20T17:17:23;12.20;99.90
8824;DHT22;4448;50.904;4.694;2023-03-20T17:19:50;12.20;99.90
8824;DHT22;4448;50.904;4.694;2023-03-20T17:22:17;12.20;99.90
8824;DHT22;4448;50.904;4.694;2023-03-20T17:24:43;12.20;99.90
8824;DHT22;4448;50.904;4.694;2023-03-20T17:27:11;12.20;99.90
8824;DHT22;4448;50.904;4.694;2023-03-20T17:29:38;12.20;99.90
8824;DHT22;4448;50.904;4.694;2023-03-20T17:32:13;12.20;99.90
8824;DHT22;4448;50.904;4.694;2023-03-20T17:34:39;12.10;99.90
8824;DHT22;4448;50.904;4.694;2023-03-20T17:37:08;12.10;99.90
8824;DHT22;4448;50.904;4.694;2023-03-20T17:39:35;12.10;99.90
8824;DHT22;4448;50.904;4.694;2023-03-20T17:42:01;12.10;99.90
8824;DHT22;4448;50.904;4.694;2023-03-20T17:44:27;12.10;99.90
8824;DHT22;4448;50.904;4.694;2023-03-20T17:46:53;12.10;99.90
8824;DHT22;4448;50.904;4.694;2023-03-20T17:49:20;12.10;99.90
8824;DHT22;4448;50.904;4.694;2023-03-20T17:51:52;12.00;99.90
8824;DHT22;4448;50.904;4.694;2023-03-20T17:54:18;12.00;99.90
8824;DHT22;4448;50.904;4.694;2023-03-20T17:56:43;12.00;99.90
8824;DHT22;4448;50.904;4.694;2023-03-20T17:59:12;12.00;99.90
8824;DHT22;4448;50.904;4.694;2023-03-20T18:01:38;12.00;99.90
8824;DHT22;4448;50.904;4.694;2023-03-20T18:04:04;12.00;99.90
8824;DHT22;4448;50.904;4.694;2023-03-20T18:06:31;12.00;99.90
8824;DHT22;4448;50.904;4.694;2023-03-20T18:08:59;12.00;99.90
8824;DHT22;4448;50.904;4.694;2023-03-20T18:11:26;12.00;99.90
8824;DHT22;4448;50.904;4.694;2023-03-20T18:13:52;11.90;99.90
8824;DHT22;4448;50.904;4.694;2023-03-20T18:16:23;11.90;99.90
8824;DHT22;4448;50.904;4.694;2023-03-20T18:18:49;11.90;99.90
8824;DHT22;4448;50.904;4.694;2023-03-20T18:21:16;11.90;99.90
8824;DHT22;4448;50.904;4.694;2023-03-20T18:23:42;11.90;99.90
8824;DHT22;4448;50.904;4.694;2023-03-20T18:28:44;11.90;99.90
8824;DHT22;4448;50.904;4.694;2023-03-20T18:31:10;11.90;99.90
8824;DHT22;4448;50.904;4.694;2023-03-20T18:33:43;11.90;99.90
8824;DHT22;4448;50.904;4.694;2023-03-20T18:36:16;11.90;99.90
8824;DHT22;4448;50.904;4.694;2023-03-20T18:38:42;11.80;99.90
8824;DHT22;4448;50.904;4.694;2023-03-20T18:41:08;11.90;99.90
8824;DHT22;4448;50.904;4.694;2023-03-20T18:43:34;11.90;99.90
8824;DHT22;4448;50.904;4.694;2023-03-20T18:46:00;11.80;99.90
8824;DHT22;4448;50.904;4.694;2023-03-20T18:48:26;11.80;99.90
8824;DHT22;4448;50.904;4.694;2023-03-20T18:50:55;11.80;99.90
8824;DHT22;4448;50.904;4.694;2023-03-20T18:53:25;11.80;99.90
8824;DHT22;4448;50.904;4.694;2023-03-20T18:55:52;11.80;99.90
8824;DHT22;4448;50.904;4.694;2023-03-20T18:58:26;11.80;99.90
8824;DHT22;4448;50.904;4.694;2023-03-20T19:00:53;11.80;99.90
8824;DHT22;4448;50.904;4.694;2023-03-20T19:03:21;11.80;99.90
8824;DHT22;4448;50.904;4.694;2023-03-20T19:05:54;11.80;99.90
8824;DHT22;4448;50.904;4.694;2023-03-20T19:08:20;11.80;99.90
8824;DHT22;4448;50.904;4.694;2023-03-20T19:10:47;11.80;99.90
8824;DHT22;4448;50.904;4.694;2023-03-20T19:13:15;11.80;99.90
8824;DHT22;4448;50.904;4.694;2023-03-20T19:15:41;11.80;99.90
8824;DHT22;4448;50.904;4.694;2023-03-20T19:18:14;11.70;99.90
8824;DHT22;4448;50.904;4.694;2023-03-20T19:20:52;11.70;99.90
8824;DHT22;4448;50.904;4.694;2023-03-20T19:23:20;11.70;99.90
8824;DHT22;4448;50.904;4.694;2023-03-20T19:25:48;11.70;99.90
8824;DHT22;4448;50.904;4.694;2023-03-20T19:28:20;11.70;99.90